• Join FlightAware (Why Join?)
  • Login
  • US Flag 
02:14PM EDT


 

Airport Tracker/Info


-or-


 

Live Flight TrackerFlight Track Log ✈ N6ZQ ✈ 16-Oct-2013 ✈ TDPD / DOM - KFPR

Flight Track Log - Related Links

Times and Time Zones

All times are in EDT time to prevent confusion due to time zone crossing. See the N6ZQ flight status page for this flight to view local times or setup timezone preferences in your user account.

Time Position Orientation Groundspeed Altitude Reporting Facility
EDT Latitude Longitude Course Direction KTS MPH feet Rate Location/Type
11:01AM 17.1000 -62.5333 307° West 180 207 12,000  Level San Juan Center
11:02AM 17.0444 -63.3758 307° West  Level Estimated
11:02AM 17.1333 -62.5667 316° Northwest 190 219 12,000  Level San Juan Center
11:03AM 17.0752 -63.4192 307° West  Level Estimated
11:03AM 17.1833 -62.6000 328° Northwest 200 230 12,000  Level San Juan Center
11:04AM 17.1061 -63.4626 307° West  Level Estimated
11:04AM 17.2000 -62.6500 289° West 210 242 12,000  Level San Juan Center
11:05AM 17.1369 -63.5060 307° West  Level Estimated
11:05AM 17.2333 -62.7000 305° West 190 219 12,000  Level San Juan Center
11:06AM 17.1677 -63.5495 307° West  Level Estimated
11:06AM 17.2500 -62.7500 289° West 180 207 12,000  Level San Juan Center
11:07AM 17.2667 -62.8167 285° West 190 219 12,000  Level San Juan Center
11:08AM 17.2833 -62.8667 289° West 190 219 12,000  Level San Juan Center
11:09AM 17.3000 -62.9167 289° West 190 219 12,000  Level San Juan Center
11:11AM 17.3500 -63.0167 298° West 190 219 12,000  Level San Juan Center
11:12AM 17.3500 -63.0667 270° West 190 219 12,000  Level San Juan Center
11:13AM 17.3667 -63.1167 289° West 190 219 12,000  Level San Juan Center
11:14AM 17.3833 -63.1833 285° West 190 219 12,000  Level San Juan Center
11:15AM 17.4000 -63.2333 289° West 190 219 12,000  Level San Juan Center
11:16AM 17.4000 -63.2833 270° West 190 219 12,000  Level San Juan Center
11:17AM 17.4167 -63.3333 289° West 190 219 12,000  Level San Juan Center
11:18AM 17.4333 -63.3833 289° West 180 207 12,000  Level San Juan Center
11:19AM 17.4333 -63.4500 270° West 190 219 12,000  Level San Juan Center
11:20AM 17.4500 -63.5000 289° West 190 219 12,000  Level San Juan Center
11:21AM 17.4667 -63.5500 289° West 190 219 12,000  Level San Juan Center
11:22AM 17.4833 -63.6000 289° West 190 219 12,000  Level San Juan Center
11:23AM 17.5000 -63.6500 289° West 190 219 12,000  Level San Juan Center
11:24AM 17.5167 -63.7000 289° West 190 219 12,000  Level San Juan Center
11:25AM 17.5333 -63.7500 289° West 190 219 12,000  Level San Juan Center
11:26AM 17.5500 -63.8000 289° West 190 219 12,000  Level San Juan Center
11:28AM 17.5833 -63.9167 287° West 190 219 12,000  Level San Juan Center
11:29AM 17.6000 -63.9667 289° West 190 219 12,000  Level San Juan Center
11:30AM 17.6167 -64.0167 289° West 180 207 12,000  Level San Juan Center
11:31AM 17.6167 -64.0667 270° West 190 219 12,000  Level San Juan Center
11:32AM 17.6333 -64.1167 289° West 190 219 12,000  Level San Juan Center
11:33AM 17.6500 -64.1667 289° West 190 219 12,000  Level San Juan Center
11:34AM 17.6667 -64.2167 289° West 190 219 12,000  Level San Juan Center
11:35AM 17.6833 -64.2667 289° West 180 207 12,000  Level San Juan Center
11:36AM 17.7000 -64.3167 289° West 190 219 12,000  Level San Juan Center
11:37AM 17.7167 -64.3833 285° West 180 207 12,000  Level San Juan Center
11:38AM 17.7333 -64.4333 289° West 190 219 12,000  Level San Juan Center
11:39AM 17.7500 -64.4833 289° West 180 207 12,000  Level San Juan Center
11:40AM 17.7667 -64.5333 289° West 190 219 12,000  Level San Juan Center
11:41AM 17.7833 -64.5833 289° West 180 207 12,000  Level San Juan Center
11:42AM 17.8000 -64.6333 289° West 180 207 12,000  Level San Juan Center
11:43AM 17.8000 -64.6833 270° West 180 207 12,000  Level San Juan Center
11:44AM 17.8167 -64.7333 289° West 180 207 12,000  Level San Juan Center
11:45AM 17.8333 -64.7833 289° West 180 207 12,000  Level San Juan Center
11:46AM 17.8500 -64.8333 289° West 180 207 12,000  Level San Juan Center
11:47AM 17.8667 -64.9000 285° West 180 207 12,000  Level San Juan Center
11:48AM 17.8833 -64.9500 289° West 190 219 12,000  Level San Juan Center
11:49AM 17.9000 -65.0000 289° West 190 219 12,000  Level San Juan Center
11:50AM 17.9167 -65.0500 289° West 190 219 12,000  Level San Juan Center
11:51AM 17.9333 -65.1000 289° West 180 207 12,000  Level San Juan Center
11:52AM 17.9500 -65.1500 289° West 190 219 12,000  Level San Juan Center
11:53AM 17.9667 -65.2167 285° West 190 219 12,000  Level San Juan Center
11:54AM 17.9667 -65.2667 270° West 190 219 12,000  Level San Juan Center
11:55AM 17.9833 -65.3167 289° West 190 219 12,000  Level San Juan Center
11:56AM 18.0000 -65.3667 289° West 190 219 12,000  Level San Juan Center
11:57AM 18.0167 -65.4167 289° West 190 219 12,000  Level San Juan Center
11:58AM 18.0333 -65.4667 289° West 190 219 12,000  Level San Juan Center
11:59AM 18.0500 -65.5333 285° West 190 219 12,000  Level San Juan Center
12:00PM 18.0667 -65.5833 289° West 180 207 12,000  Level San Juan Center
12:01PM 18.0833 -65.6333 289° West 190 219 12,000  Level San Juan Center
12:02PM 18.1000 -65.6833 289° West 190 219 12,000  Level San Juan Center
12:03PM 18.1000 -65.7333 270° West 190 219 12,000  Level San Juan Center
12:04PM 18.1167 -65.7833 289° West 190 219 12,000  Level San Juan Center
12:05PM 18.1333 -65.8333 289° West 190 219 12,000  Level San Juan Center
12:06PM 18.1500 -65.9000 285° West 190 219 12,000  Level San Juan Center
12:07PM 18.1667 -65.9500 289° West 190 219 12,000  Level San Juan Center
12:08PM 18.1833 -66.0000 289° West 190 219 12,000  Level San Juan Center
12:09PM 18.2000 -66.0500 289° West 190 219 12,000  Level San Juan Center
12:10PM 18.2167 -66.1000 289° West 190 219 12,000  Level San Juan Center
12:11PM 18.2333 -66.1667 285° West 190 219 12,000  Level San Juan Center
12:12PM 18.2500 -66.2167 289° West 190 219 12,000  Level San Juan Center
12:13PM 18.2667 -66.2667 289° West 190 219 12,000  Level San Juan Center
12:14PM 18.2833 -66.3333 285° West 190 219 12,000  Level San Juan Center
12:15PM 18.2833 -66.3833 270° West 190 219 12,000  Level San Juan Center
12:16PM 18.3000 -66.4333 289° West 190 219 12,000  Level San Juan Center
12:17PM 18.3167 -66.4833 289° West 190 219 12,000  Level San Juan Center
12:18PM 18.3333 -66.5333 289° West 190 219 12,000  Level San Juan Center
12:19PM 18.3500 -66.6000 285° West 190 219 12,000  Level San Juan Center
12:20PM 18.3667 -66.6500 289° West 200 230 12,000  Level San Juan Center
12:21PM 18.3833 -66.7000 289° West 190 219 12,000  Level San Juan Center
12:22PM 18.4000 -66.7500 289° West 190 219 12,000  Level San Juan Center
12:23PM 18.4167 -66.8167 285° West 190 219 12,000  Level San Juan Center
12:24PM 18.4333 -66.8667 289° West 200 230 12,000  Level San Juan Center
12:25PM 18.4333 -66.9167 270° West 200 230 12,000  Level San Juan Center
12:26PM 18.4500 -66.9667 289° West 200 230 12,000  Level San Juan Center
12:27PM 18.4667 -67.0333 285° West 180 207 12,000  Level San Juan Center
12:28PM 18.4833 -67.0833 289° West 200 230 12,000  Level San Juan Center
12:29PM 18.5167 -67.1333 305° West 200 230 12,000  Level San Juan Center
12:30PM 18.5667 -67.1833 317° Northwest 190 219 12,000  Level San Juan Center
12:31PM 18.6000 -67.2167 317° Northwest 200 230 12,000  Level San Juan Center
12:32PM 18.6333 -67.2667 305° West 190 219 12,000  Level San Juan Center
12:33PM 18.6667 -67.3000 317° Northwest 190 219 12,000  Level San Juan Center
12:34PM 18.7167 -67.3500 317° Northwest 190 219 12,000  Level San Juan Center
12:35PM 18.7500 -67.3833 317° Northwest 190 219 12,000  Level San Juan Center
12:36PM 18.7833 -67.4333 305° West 200 230 12,000  Level San Juan Center
12:37PM 18.8333 -67.4833 317° Northwest 200 230 12,000  Level San Juan Center
12:38PM 18.8500 -67.5167 298° West 200 230 12,000  Level San Juan Center
12:39PM 18.9000 -67.5500 328° Northwest 200 230 12,000  Level San Juan Center
12:40PM 18.9333 -67.6000 305° West 200 230 12,000  Level San Juan Center
12:41PM 18.9667 -67.6500 305° West 200 230 12,000  Level San Juan Center
12:42PM 19.0167 -67.6833 328° Northwest 200 230 12,000  Level San Juan Center
12:43PM 19.0500 -67.7333 305° West 200 230 12,000  Level San Juan Center
12:44PM 19.0833 -67.7667 317° Northwest 200 230 12,000  Level San Juan Center
12:45PM 19.1333 -67.8167 317° Northwest 200 230 12,000  Level San Juan Center
12:46PM 19.1667 -67.8500 317° Northwest 190 219 12,000  Level San Juan Center
12:47PM 19.2000 -67.9000 305° West 200 230 12,000  Level San Juan Center
12:48PM 19.2333 -67.9500 305° West 200 230 12,000  Level San Juan Center
12:49PM 19.2667 -67.9833 317° Northwest 200 230 12,000  Level San Juan Center
12:50PM 19.3167 -68.0333 317° Northwest 210 242 12,000  Level San Juan Center
12:51PM 19.3500 -68.0667 317° Northwest 200 230 12,000  Level San Juan Center
12:52PM 19.3833 -68.1167 305° West 200 230 12,000  Level San Juan Center
12:53PM 19.4333 -68.1500 328° Northwest 200 230 12,000  Level San Juan Center
12:54PM 19.4667 -68.2000 305° West 190 219 12,000  Level San Juan Center
12:55PM 19.5000 -68.2500 305° West 200 230 12,000  Level San Juan Center
12:56PM 19.5333 -68.2833 317° Northwest 200 230 12,000 -60 Level San Juan Center
12:57PM 19.5833 -68.3333 317° Northwest 200 230 11,900 -60 Descending San Juan Center
12:58PM 19.6167 -68.3667 317° Northwest 190 219 11,900  Level San Juan Center
12:59PM 19.6500 -68.4167 305° West 190 219 11,900  Level San Juan Center
01:00PM 19.6833 -68.4500 317° Northwest 200 230 12,000  Climbing San Juan Center
01:01PM 19.7167 -68.4833 317° Northwest 190 219 11,900 -60 Descending San Juan Center
01:02PM 19.7500 -68.5333 305° West 190 219 11,900  Level San Juan Center
01:03PM 19.8000 -68.5833 317° Northwest 190 219 11,900  Level San Juan Center
01:04PM 19.8333 -68.6167 317° Northwest 190 219 11,900  Level San Juan Center
01:05PM 19.8667 -68.6667 305° West 190 219 11,900  Level San Juan Center
01:06PM 19.9000 -68.7167 305° West 190 219 11,900  Level San Juan Center
01:10PM 20.0600 -68.9256 309° West 201 231 12,000  Climbing Miami Center
01:11PM 20.0914 -68.9722 306° West 201 231 12,000  Level Miami Center
01:12PM 20.1233 -69.0256 303° West 196 226 12,000  Level Miami Center
01:13PM 20.1544 -69.0658 309° West 196 226 12,000  Level Miami Center
01:14PM 20.1839 -69.1147 303° West 201 231 12,000  Level Miami Center
01:15PM 20.2156 -69.1639 304° West 201 231 12,000  Level Miami Center
01:16PM 20.2450 -69.2106 304° West 201 231 12,000  Level Miami Center
01:17PM 20.2767 -69.2619 303° West 201 231 12,000  Level Miami Center
01:18PM 20.3058 -69.3089 304° West 206 237 12,000  Level Miami Center
01:19PM 20.3353 -69.3581 303° West 206 237 12,000  Level Miami Center
01:20PM 20.3689 -69.4047 308° West 206 237 12,000  Level Miami Center
01:21PM 20.4003 -69.4561 303° West 206 237 12,000  Level Miami Center
01:22PM 20.4297 -69.5031 304° West 206 237 12,000  Level Miami Center
01:23PM 20.4611 -69.5522 304° West 206 237 12,000  Level Miami Center
01:24PM 20.4928 -69.6014 305° West 206 237 12,000  Level Miami Center
01:25PM 20.5242 -69.6506 304° West 206 237 12,000  Level Miami Center
01:26PM 20.5533 -69.6978 303° West 206 237 12,000  Level Miami Center
01:27PM 20.5828 -69.7492 301° West 206 237 12,000  Level Miami Center
01:28PM 20.6142 -69.7961 306° West 206 237 12,000  Level Miami Center
01:29PM 20.6394 -69.8481 297° West 200 230 12,000  Level Miami Center
01:30PM 20.6567 -69.9047 288° West 200 230 12,000 -60 Level Miami Center
01:31PM 20.6778 -69.9589 293° West 200 230 11,900  Descending Miami Center
01:32PM 20.6928 -70.0158 286° West 200 230 12,000  Climbing Miami Center
01:33PM 20.7117 -70.0703 290° West 200 230 12,000  Level Miami Center
01:34PM 20.7308 -70.1247 291° West 200 230 12,000  Level Miami Center
01:35PM 20.7478 -70.1814 288° West 200 230 12,000  Level Miami Center
01:36PM 20.7647 -70.2358 288° West 200 230 12,000  Level Miami Center
01:37PM 20.7839 -70.2903 291° West 200 230 12,000  Level Miami Center
01:38PM 20.8028 -70.3472 290° West 200 230 12,000  Level Miami Center
01:39PM 20.8219 -70.4039 290° West 200 230 12,000  Level Miami Center
01:40PM 20.8411 -70.4650 289° West 200 230 12,000  Level Miami Center
01:41PM 20.8581 -70.5197 288° West 200 230 12,000  Level Miami Center
01:42PM 20.8769 -70.5742 290° West 200 230 12,000  Level Miami Center
01:43PM 20.8936 -70.6289 288° West 200 230 12,000  Level Miami Center
01:44PM 20.9125 -70.6833 290° West 200 230 12,000  Level Miami Center
01:45PM 20.9314 -70.7403 290° West 200 230 12,000  Level Miami Center
01:46PM 20.9481 -70.7928 289° West 200 230 12,000  Level Miami Center
01:47PM 20.9647 -70.8453 289° West 200 230 12,000  Level Miami Center
01:48PM 20.9814 -70.8978 289° West 195 224 12,000  Level Miami Center
01:49PM 20.9981 -70.9525 288° West 195 224 12,000  Level Miami Center
01:50PM 21.0147 -71.0031 289° West 195 224 12,000  Level Miami Center
01:51PM 21.0356 -71.0575 292° West 190 219 12,000 -60 Level Miami Center
01:52PM 21.0500 -71.1125 286° West 190 219 11,900  Descending Miami Center
01:53PM 21.0686 -71.1650 291° West 190 219 12,000  Climbing Miami Center
01:54PM 21.0875 -71.2197 290° West 190 219 12,000  Level Miami Center
01:55PM 21.1061 -71.2744 290° West 190 219 12,000  Level Miami Center
01:56PM 21.1228 -71.3294 288° West 190 219 12,000  Level Miami Center
01:57PM 21.1392 -71.3822 288° West 190 219 12,000  Level Miami Center
01:58PM 21.1578 -71.4392 289° West 190 219 12,000  Level Miami Center
01:59PM 21.1764 -71.4894 292° West 190 219 12,000  Level Miami Center
02:00PM 21.1928 -71.5444 288° West 190 219 12,000  Level Miami Center
02:01PM 21.2092 -71.5994 288° West 195 224 12,000  Level Miami Center
02:02PM 21.2278 -71.6544 290° West 195 224 12,000  Level Miami Center
02:03PM 21.2442 -71.7028 290° West 195 224 12,000  Level Miami Center
02:04PM 21.2625 -71.7553 291° West 195 224 12,000  Level Miami Center
02:05PM 21.2831 -71.8081 293° West 195 224 12,000  Level Miami Center
02:06PM 21.3056 -71.8628 294° West 195 224 12,000  Level Miami Center
02:07PM 21.3303 -71.9131 298° West 195 224 12,000  Level Miami Center
02:08PM 21.3364 -71.9708 276° West 189 217 12,000  Level Miami Center
02:09PM 21.3400 -72.0264 274° West 189 217 12,000 -60 Level Miami Center
02:10PM 21.3461 -72.0861 276° West 196 226 11,900  Descending Miami Center
02:11PM 21.3500 -72.1417 274° West 196 226 12,000  Climbing Miami Center
02:12PM 21.3539 -72.2017 274° West 196 226 12,000  Level Miami Center
02:13PM 21.3597 -72.2594 276° West 196 226 12,000  Level Miami Center
02:14PM 21.3636 -72.3150 274° West 196 226 12,000  Level Miami Center
02:15PM 21.3694 -72.3750 276° West 196 226 12,000  Level Miami Center
02:17PM 21.3731 -72.4306 274° West 196 226 12,000  Level Miami Center
02:18PM 21.3794 -72.4994 276° West 196 226 12,000  Level Miami Center
02:19PM 21.3850 -72.5550 276° West 196 226 12,000  Level Miami Center
02:20PM 21.3908 -72.6103 276° West 196 226 12,000  Level Miami Center
02:21PM 21.4006 -72.6658 281° West 196 226 12,000  Level Miami Center
02:22PM 21.4208 -72.7186 292° West 196 226 12,000  Level Miami Center
02:23PM 21.4431 -72.7669 296° West 191 220 12,000  Level Miami Center
02:24PM 21.4653 -72.8153 296° West 191 220 12,000  Level Miami Center
02:25PM 21.4853 -72.8661 293° West 191 220 12,000  Level Miami Center
02:26PM 21.5033 -72.9144 292° West 191 220 12,000  Level Miami Center
02:27PM 21.5336 -72.9606 305° West 186 214 12,000  Level Miami Center
02:28PM 21.5456 -73.0136 284° West 186 214 12,000  Level Miami Center
02:29PM 21.5572 -73.0692 283° West 186 214 12,000  Level Miami Center
02:30PM 21.5608 -73.1247 274° West 191 220 12,000  Level Miami Center
02:31PM 21.5725 -73.1781 283° West 191 220 12,000  Level Miami Center
02:32PM 21.5800 -73.2314 279° West 191 220 12,000  Level Miami Center
02:33PM 21.5875 -73.2825 279° West 185 213 12,000  Level Miami Center
02:34PM 21.5972 -73.3447 280° West 178 205 12,000  Level Miami Center
02:35PM 21.6278 -73.3997 301° West 178 205 12,000 -60 Level Miami Center
02:36PM 21.6581 -73.4436 307° West 183 211 11,900  Descending Miami Center
02:37PM 21.6881 -73.4831 309° West 183 211 12,000  Climbing Miami Center
02:38PM 21.7161 -73.5292 303° West 183 211 12,000 -60 Level Miami Center
02:39PM 21.7506 -73.5753 309° West 188 216 11,900 -60 Descending Miami Center
02:40PM 21.7808 -73.6194 306° West 188 216 11,900  Level Miami Center
02:41PM 21.8131 -73.6633 308° West 193 222 12,000  Climbing Miami Center
02:42PM 21.8411 -73.7072 305° West 188 216 12,000  Level Miami Center
02:43PM 21.8778 -73.7625 306° West 193 222 12,000  Level Miami Center
02:44PM 21.9058 -73.8086 303° West 193 222 12,000  Level Miami Center
02:45PM 21.9319 -73.8597 299° West 193 222 12,000  Level Miami Center
02:46PM 21.9558 -73.9083 298° West 193 222 12,000 -60 Level Miami Center
02:47PM 21.9836 -73.9503 306° West 182 209 11,900  Descending Miami Center
02:48PM 22.0075 -73.9967 299° West 177 204 12,000  Climbing Miami Center
02:49PM 22.0397 -74.0364 311° West 177 204 11,900 -60 Descending Miami Center
02:50PM 22.0739 -74.0758 313° West 186 214 11,900  Level Miami Center
02:51PM 22.1181 -74.1042 329° Northwest 186 214 11,900  Level Miami Center
02:52PM 22.1606 -74.1392 323° Northwest 181 208 12,000  Climbing Miami Center
02:53PM 22.2050 -74.1694 328° Northwest 186 214 12,000  Level Miami Center
02:54PM 22.2494 -74.2022 326° Northwest 186 214 12,000  Level Miami Center
02:55PM 22.2897 -74.2397 319° Northwest 192 221 12,000  Level Miami Center
02:56PM 22.3322 -74.2769 321° Northwest 192 221 12,000 -60 Level Miami Center
02:57PM 22.3767 -74.3119 324° Northwest 192 221 11,900  Descending Miami Center
02:58PM 22.4147 -74.3539 314° West 192 221 12,000  Climbing Miami Center
02:59PM 22.4531 -74.3958 315° West 187 215 11,900  Descending Miami Center
03:00PM 22.4933 -74.4333 319° Northwest 192 221 12,000  Climbing Miami Center
03:01PM 22.5297 -74.4778 312° West 197 227 12,000 -60 Level Miami Center
03:02PM 22.5678 -74.5197 314° West 197 227 11,900 -60 Descending Miami Center
03:03PM 22.6061 -74.5594 316° Northwest 191 220 11,900  Level Miami Center
03:04PM 22.6444 -74.6039 313° West 191 220 12,000  Climbing Miami Center
03:05PM 22.6847 -74.6458 316° Northwest 196 226 12,000 -60 Level Miami Center
03:06PM 22.7228 -74.6881 314° West 196 226 11,900  Descending Miami Center
03:07PM 22.7633 -74.7325 315° West 201 231 12,000  Climbing Miami Center
03:08PM 22.8036 -74.7744 316° Northwest 201 231 12,000 -60 Level Miami Center
03:09PM 22.8375 -74.8122 314° West 201 231 11,900  Descending Miami Center
03:10PM 22.8778 -74.8567 315° West 201 231 12,000  Climbing Miami Center
03:11PM 22.9181 -74.8989 316° Northwest 201 231 11,900  Descending Miami Center
03:12PM 22.9561 -74.9414 314° West 201 231 12,000  Climbing Miami Center
03:13PM 22.9964 -74.9858 315° West 201 231 12,000  Level Miami Center
03:14PM 23.0367 -75.0281 316° Northwest 201 231 12,000  Level Miami Center
03:15PM 23.0747 -75.0706 314° West 196 226 12,000  Level Miami Center
03:16PM 23.1150 -75.1128 316° Northwest 196 226 12,000  Level Miami Center
03:17PM 23.1531 -75.1575 313° West 196 226 12,000  Level Miami Center
03:18PM 23.1933 -75.1978 317° Northwest 196 226 12,000  Level Miami Center
03:19PM 23.2333 -75.2422 314° West 196 226 12,000  Level Miami Center
03:20PM 23.2714 -75.2847 314° West 196 226 12,000  Level Miami Center
03:21PM 23.3094 -75.3250 316° Northwest 196 226 12,000  Level Miami Center
03:22PM 23.3475 -75.3700 313° West 196 226 12,000  Level Miami Center
03:23PM 23.3878 -75.4125 316° Northwest 196 226 12,000 -60 Level Miami Center
03:24PM 23.4278 -75.4550 316° Northwest 196 226 11,900 -60 Descending Miami Center
03:25PM 23.4658 -75.4953 316° Northwest 196 226 11,900  Level Miami Center
03:26PM 23.5058 -75.5425 313° West 196 226 12,000  Climbing Miami Center
03:27PM 23.5417 -75.5853 312° West 196 226 11,900  Descending Miami Center
03:28PM 23.5819 -75.6347 312° West 196 226 12,000  Climbing Miami Center
03:29PM 23.6178 -75.6797 311° West 196 226 12,000  Level Miami Center
03:30PM 23.6517 -75.7225 311° West 191 220 12,000  Level Miami Center
03:31PM 23.6875 -75.7675 311° West 191 220 12,000  Level Miami Center
03:32PM 23.7233 -75.8103 312° West 191 220 12,000  Level Miami Center
03:33PM 23.7592 -75.8553 311° West 191 220 12,000  Level Miami Center
03:34PM 23.7950 -75.8983 312° West 191 220 12,000  Level Miami Center
03:35PM 23.8308 -75.9411 312° West 191 220 12,000  Level Miami Center
03:36PM 23.8686 -75.9842 314° West 191 220 12,000  Level Miami Center
03:37PM 23.9064 -76.0247 316° Northwest 191 220 12,000  Level Miami Center
03:38PM 23.9442 -76.0675 314° West 191 220 12,000  Level Miami Center
03:39PM 23.9842 -76.1106 315° West 191 220 12,000  Level Miami Center
03:40PM 24.0283 -76.1603 314° West 191 220 12,000  Level Miami Center
03:41PM 24.0683 -76.2056 314° West 191 220 12,000  Level Miami Center
03:42PM 24.1061 -76.2486 314° West 196 226 12,000  Level Miami Center
03:43PM 24.1481 -76.2894 318° Northwest 196 226 12,000  Level Miami Center
03:44PM 24.1858 -76.3350 312° West 196 226 12,000  Level Miami Center
03:45PM 24.2236 -76.3781 314° West 196 226 12,000  Level Miami Center
03:46PM 24.2614 -76.4211 314° West 196 226 12,000  Level Miami Center
03:47PM 24.3033 -76.4644 317° Northwest 196 226 12,000  Level Miami Center
03:48PM 24.3411 -76.5075 314° West 201 231 12,000  Level Miami Center
03:49PM 24.3786 -76.5531 312° West 201 231 12,000  Level Miami Center
03:50PM 24.4186 -76.5942 317° Northwest 201 231 12,000  Level Miami Center
03:51PM 24.4603 -76.6372 317° Northwest 201 231 12,000  Level Miami Center
03:52PM 24.4939 -76.6831 309° West 196 226 12,000  Level Miami Center
03:53PM 24.5378 -76.7264 318° Northwest 196 226 12,000  Level Miami Center
03:54PM 24.5756 -76.7719 312° West 196 226 12,000  Level Miami Center
03:55PM 24.6111 -76.8108 315° West 196 226 12,000  Level Miami Center
03:56PM 24.6486 -76.8542 314° West 196 226 12,000  Level Miami Center
03:57PM 24.6883 -76.9000 314° West 196 226 12,000  Level Miami Center
03:58PM 24.7258 -76.9433 314° West 196 226 12,000  Level Miami Center
03:59PM 24.7656 -76.9869 315° West 196 226 12,000  Level Miami Center
04:00PM 24.8053 -77.0306 315° West 196 226 12,000  Level Miami Center
04:01PM 24.8450 -77.0764 314° West 196 226 12,000  Level Miami Center
04:02PM 24.8847 -77.1200 315° West 196 226 12,000  Level Miami Center
04:03PM 24.9242 -77.1658 314° West 196 226 12,000  Level Miami Center
04:04PM 24.9658 -77.2094 317° Northwest 196 226 12,000  Level Miami Center
04:05PM 25.0056 -77.2556 314° West 201 231 12,000  Level Miami Center
04:06PM 25.0450 -77.3014 314° West 201 231 12,000  Level Miami Center
04:07PM 25.0867 -77.3475 315° West 201 231 12,000  Level Miami Center
04:08PM 25.1264 -77.3936 314° West 201 231 12,000  Level Miami Center
04:09PM 25.1658 -77.4397 313° West 201 231 12,000  Level Miami Center
04:10PM 25.2117 -77.4906 315° West 206 237 12,000  Level Miami Center
04:11PM 25.2511 -77.5367 313° West 206 237 12,000  Level Miami Center
04:12PM 25.2906 -77.5828 313° West 211 243 12,000  Level Miami Center
04:13PM 25.3322 -77.6314 313° West 211 243 12,000  Level Miami Center
04:14PM 25.3717 -77.6775 313° West 211 243 12,000  Level Miami Center
04:15PM 25.4131 -77.7239 315° West 211 243 12,000  Level Miami Center
04:16PM 25.4547 -77.7725 314° West 211 243 12,000  Level Miami Center
04:17PM 25.4961 -77.8189 315° West 211 243 12,000  Level Miami Center
04:18PM 25.5250 -77.8814 297° West 218 251 12,000  Level Miami Center
04:19PM 25.5769 -77.9139 331° Northwest 213 245 12,000  Level Miami Center
04:20PM 25.6186 -77.9606 315° West 213 245 12,000  Level Miami Center
04:21PM 25.6619 -78.0022 319° Northwest 213 245 12,000  Level Miami Center
04:22PM 25.6992 -78.0533 309° West 213 245 12,000  Level Miami Center
04:23PM 25.7386 -78.1022 312° West 213 245 12,000  Level Miami Center
04:24PM 25.7819 -78.1467 317° Northwest 213 245 12,000  Level Miami Center
04:25PM 25.8214 -78.1956 312° West 213 245 12,000  Level Miami Center
04:26PM 25.8628 -78.2419 315° West 213 245 12,000  Level Miami Center
04:27PM 25.9039 -78.2886 314° West 213 245 12,000  Level Miami Center
04:28PM 25.9453 -78.3331 316° Northwest 213 245 12,000  Level Miami Center
04:29PM 25.9825 -78.3892 306° West 213 245 12,000  Level Miami Center
04:30PM 26.0258 -78.4358 316° Northwest 213 245 12,000  Level Miami Center
04:31PM 26.0669 -78.4828 314° West 213 245 12,000  Level Miami Center
04:32PM 26.1083 -78.5294 315° West 213 245 12,000  Level Miami Center
04:33PM 26.1475 -78.5786 312° West 213 245 12,000  Level Miami Center
04:34PM 26.1886 -78.6278 313° West 213 245 12,000  Level Miami Center
04:35PM 26.2342 -78.6750 317° Northwest 213 245 12,000  Level Miami Center
04:36PM 26.2731 -78.7242 311° West 213 245 12,000  Level Miami Center
04:37PM 26.3144 -78.7711 315° West 213 245 12,000  Level Miami Center
04:38PM 26.3575 -78.8206 314° West 213 245 12,000  Level Miami Center
04:39PM 26.3967 -78.8700 311° West 216 249 12,000 -60 Level Miami Center
04:40PM 26.4378 -78.9169 314° West 216 249 11,900 -300 Descending Miami Center
04:41PM 26.4808 -78.9664 314° West 216 249 11,400 -480 Descending Miami Center
04:42PM 26.5197 -79.0183 310° West 221 254 11,000 -420 Descending Miami Center
04:43PM 26.5753 -79.0797 315° West 233 268 10,600 -480 Descending Miami Center
04:44PM 26.6161 -79.1317 311° West 238 274 10,100 -300 Descending Miami Center
04:45PM 26.6633 -79.1861 314° West 238 274 10,000 -60 Descending Miami Center
04:46PM 26.7044 -79.2333 314° West 233 268 10,000  Level Miami Center
04:47PM 26.7475 -79.2853 313° West 233 268 10,000  Level Miami Center
04:48PM 26.7925 -79.3375 314° West 233 268 10,000  Level Miami Center
04:49PM 26.8314 -79.3850 313° West 222 255 10,000  Level Miami Center
04:50PM 26.8744 -79.4347 314° West 217 250 10,000 -300 Level Miami Center
04:51PM 26.9172 -79.4869 313° West 223 257 9,400 -720 Descending Miami Center
04:52PM 26.9603 -79.5367 314° West 229 264 8,600 -720 Descending Miami Center
04:53PM 27.0053 -79.5914 313° West 234 269 8,000 -840 Descending Miami Center
04:54PM 27.0561 -79.6533 313° West 241 277 7,000 -900 Descending Miami Center
04:55PM 27.1053 -79.7081 315° West 235 270 6,200 -840 Descending Miami Center
04:56PM 27.1481 -79.7628 311° West 240 276 5,400 -900 Descending Miami Center
04:57PM 27.1908 -79.8131 314° West 240 276 4,500 -720 Descending Miami Center
04:58PM 27.2378 -79.8703 313° West 240 276 4,000 -300 Descending Miami Center
04:59PM 27.2825 -79.9253 312° West 229 264 4,000  Level Miami Center
05:00PM 27.3147 -79.9797 304° West 219 252 4,000  Level Miami Center
05:01PM 27.3428 -80.0389 298° West 214 246 4,000  Level Miami Center
05:02PM 27.3667 -80.0911 297° West 214 246 4,000 -180 Level Miami Center
05:03PM 27.3986 -80.1575 298° West 214 246 3,700 -600 Descending Miami Center
05:04PM 27.4264 -80.2192 297° West 221 254 2,900 -900 Descending Miami Center
05:05PM 27.4522 -80.2783 296° West 221 254 1,900 -900 Descending Miami Center
05:06PM 27.4717 -80.3306 293° West 215 247 1,100 -300 Descending Miami Center
05:07PM 27.4725 -80.3819 271° West 189 217 1,300 -420 Climbing Miami Center
05:08PM 27.4953 -80.3919 339° North 80 92 300 -600 Descending Miami Center
05:09PM 27.5075 -80.4064 314° West 73 84 200 -120 Descending Miami Center